sensor_id;sensor_type;location;lat;lon;timestamp;pressure;altitude;pressure_sealevel;temperature;humidity
66164;BME280;52962;51.088;3.096;2022-09-27T00:01:37;99764.75;;;11.14;100.00
66164;BME280;52962;51.088;3.096;2022-09-27T00:04:06;99772.66;;;11.14;100.00
66164;BME280;52962;51.088;3.096;2022-09-27T00:06:34;99771.78;;;11.06;100.00
66164;BME280;52962;51.088;3.096;2022-09-27T00:09:06;99779.69;;;11.14;100.00
66164;BME280;52962;51.088;3.096;2022-09-27T00:11:37;99775.31;;;11.14;100.00
66164;BME280;52962;51.088;3.096;2022-09-27T00:14:07;99776.19;;;11.10;100.00
66164;BME280;52962;51.088;3.096;2022-09-27T00:16:36;99780.56;;;11.22;100.00
66164;BME280;52962;51.088;3.096;2022-09-27T00:19:07;99777.06;;;11.28;100.00
66164;BME280;52962;51.088;3.096;2022-09-27T00:21:36;99779.69;;;11.25;100.00
66164;BME280;52962;51.088;3.096;2022-09-27T00:24:05;99785.84;;;11.28;100.00
66164;BME280;52962;51.088;3.096;2022-09-27T00:26:32;99785.84;;;11.27;100.00
66164;BME280;52962;51.088;3.096;2022-09-27T00:29:00;99785.84;;;11.27;100.00
66164;BME280;52962;51.088;3.096;2022-09-27T00:31:30;99781.47;;;11.29;100.00
66164;BME280;52962;51.088;3.096;2022-09-27T00:34:00;99784.09;;;11.29;100.00
66164;BME280;52962;51.088;3.096;2022-09-27T00:36:29;99790.25;;;11.34;100.00
66164;BME280;52962;51.088;3.096;2022-09-27T00:38:57;99771.81;;;11.37;100.00
66164;BME280;52962;51.088;3.096;2022-09-27T00:41:28;99786.75;;;11.42;100.00
66164;BME280;52962;51.088;3.096;2022-09-27T00:43:58;99774.44;;;11.41;100.00
66164;BME280;52962;51.088;3.096;2022-09-27T00:46:30;99778.81;;;11.44;100.00
66164;BME280;52962;51.088;3.096;2022-09-27T00:49:07;99788.50;;;11.43;100.00
66164;BME280;52962;51.088;3.096;2022-09-27T00:51:38;99784.06;;;11.50;100.00
66164;BME280;52962;51.088;3.096;2022-09-27T00:54:09;99783.19;;;11.51;100.00
66164;BME280;52962;51.088;3.096;2022-09-27T00:56:41;99795.50;;;11.54;100.00
66164;BME280;52962;51.088;3.096;2022-09-27T00:59:13;99791.09;;;11.54;100.00
66164;BME280;52962;51.088;3.096;2022-09-27T01:01:44;99785.81;;;11.51;100.00
66164;BME280;52962;51.088;3.096;2022-09-27T01:04:14;99792.88;;;11.43;100.00
66164;BME280;52962;51.088;3.096;2022-09-27T01:06:43;99806.06;;;11.40;100.00
66164;BME280;52962;51.088;3.096;2022-09-27T01:09:11;99805.19;;;11.32;100.00
66164;BME280;52962;51.088;3.096;2022-09-27T01:11:41;99794.59;;;10.95;100.00
66164;BME280;52962;51.088;3.096;2022-09-27T01:14:35;99798.06;;;10.76;100.00
66164;BME280;52962;51.088;3.096;2022-09-27T01:17:17;99800.63;;;10.61;100.00
66164;BME280;52962;51.088;3.096;2022-09-27T01:23:08;99803.28;;;10.64;100.00
66164;BME280;52962;51.088;3.096;2022-09-27T01:25:54;99807.69;;;10.71;100.00
66164;BME280;52962;51.088;3.096;2022-09-27T01:28:35;99805.06;;;10.74;100.00
66164;BME280;52962;51.088;3.096;2022-09-27T01:31:17;99809.44;;;10.75;100.00
66164;BME280;52962;51.088;3.096;2022-09-27T01:33:54;99811.19;;;10.73;100.00
66164;BME280;52962;51.088;3.096;2022-09-27T01:36:33;99812.06;;;10.67;100.00
66164;BME280;52962;51.088;3.096;2022-09-27T01:39:14;99810.31;;;10.71;100.00
66164;BME280;52962;51.088;3.096;2022-09-27T01:41:52;99815.59;;;10.71;100.00
66164;BME280;52962;51.088;3.096;2022-09-27T01:44:28;99819.09;;;10.73;100.00
66164;BME280;52962;51.088;3.096;2022-09-27T01:47:02;99812.06;;;10.70;100.00
66164;BME280;52962;51.088;3.096;2022-09-27T01:49:35;99810.31;;;10.69;100.00
66164;BME280;52962;51.088;3.096;2022-09-27T01:52:07;99812.06;;;10.69;100.00
66164;BME280;52962;51.088;3.096;2022-09-27T01:54:41;99813.81;;;10.70;100.00
66164;BME280;52962;51.088;3.096;2022-09-27T01:57:12;99812.06;;;10.69;100.00
66164;BME280;52962;51.088;3.096;2022-09-27T01:59:46;99814.69;;;10.67;100.00
66164;BME280;52962;51.088;3.096;2022-09-27T02:02:21;99813.81;;;10.70;100.00
66164;BME280;52962;51.088;3.096;2022-09-27T02:04:53;99815.56;;;10.66;100.00
66164;BME280;52962;51.088;3.096;2022-09-27T02:07:28;99809.44;;;10.66;100.00
66164;BME280;52962;51.088;3.096;2022-09-27T02:10:00;99807.66;;;10.65;100.00
66164;BME280;52962;51.088;3.096;2022-09-27T02:12:32;99808.53;;;10.64;100.00
66164;BME280;52962;51.088;3.096;2022-09-27T02:15:06;99812.06;;;10.66;100.00
66164;BME280;52962;51.088;3.096;2022-09-27T02:17:42;99807.69;;;10.68;100.00
66164;BME280;52962;51.088;3.096;2022-09-27T02:20:12;99814.69;;;10.66;100.00
66164;BME280;52962;51.088;3.096;2022-09-27T02:22:46;99807.69;;;10.68;100.00
66164;BME280;52962;51.088;3.096;2022-09-27T02:25:19;99801.53;;;10.66;100.00
66164;BME280;52962;51.088;3.096;2022-09-27T02:27:54;99803.25;;;10.62;100.00
66164;BME280;52962;51.088;3.096;2022-09-27T02:30:25;99805.00;;;10.60;100.00
66164;BME280;52962;51.088;3.096;2022-09-27T02:32:55;99800.59;;;10.53;100.00
66164;BME280;52962;51.088;3.096;2022-09-27T02:35:26;99792.69;;;10.52;100.00
66164;BME280;52962;51.088;3.096;2022-09-27T02:37:57;99797.94;;;10.48;100.00
66164;BME280;52962;51.088;3.096;2022-09-27T02:40:29;99802.34;;;10.51;100.00
66164;BME280;52962;51.088;3.096;2022-09-27T02:42:59;99790.06;;;10.52;100.00
66164;BME280;52962;51.088;3.096;2022-09-27T02:45:30;99799.72;;;10.53;100.00
66164;BME280;52962;51.088;3.096;2022-09-27T02:48:11;99788.28;;;10.47;100.00
66164;BME280;52962;51.088;3.096;2022-09-27T02:50:53;99789.19;;;10.49;100.00
66164;BME280;52962;51.088;3.096;2022-09-27T02:53:28;99801.44;;;10.41;100.00
66164;BME280;52962;51.088;3.096;2022-09-27T02:56:02;99786.53;;;10.43;100.00
66164;BME280;52962;51.088;3.096;2022-09-27T02:58:45;99781.25;;;10.37;100.00
66164;BME280;52962;51.088;3.096;2022-09-27T03:01:21;99784.63;;;10.15;100.00
66164;BME280;52962;51.088;3.096;2022-09-27T03:03:53;99794.41;;;10.33;100.00
66164;BME280;52962;51.088;3.096;2022-09-27T03:06:26;99788.25;;;10.28;100.00
66164;BME280;52962;51.088;3.096;2022-09-27T03:08:56;99799.53;;;10.14;100.00
66164;BME280;52962;51.088;3.096;2022-09-27T03:11:23;99785.47;;;10.08;100.00
66164;BME280;52962;51.088;3.096;2022-09-27T03:13:51;99780.25;;;10.14;100.00
66164;BME280;52962;51.088;3.096;2022-09-27T03:16:34;99774.13;;;10.18;100.00
66164;BME280;52962;51.088;3.096;2022-09-27T03:19:04;99779.38;;;10.13;100.00
66164;BME280;52962;51.088;3.096;2022-09-27T03:21:31;99781.97;;;10.09;100.00
66164;BME280;52962;51.088;3.096;2022-09-27T03:24:00;99782.78;;;9.97;100.00
66164;BME280;52962;51.088;3.096;2022-09-27T03:26:28;99778.38;;;9.92;100.00
66164;BME280;52962;51.088;3.096;2022-09-27T03:28:56;99784.47;;;9.89;100.00
66164;BME280;52962;51.088;3.096;2022-09-27T03:31:24;99789.72;;;9.88;100.00
66164;BME280;52962;51.088;3.096;2022-09-27T03:33:52;99788.88;;;9.92;100.00
66164;BME280;52962;51.088;3.096;2022-09-27T03:36:21;99783.63;;;9.92;100.00
66164;BME280;52962;51.088;3.096;2022-09-27T03:38:49;99794.13;;;9.92;100.00
66164;BME280;52962;51.088;3.096;2022-09-27T03:41:17;99799.41;;;9.95;100.00
66164;BME280;52962;51.088;3.096;2022-09-27T03:43:44;99796.81;;;9.98;100.00
66164;BME280;52962;51.088;3.096;2022-09-27T03:46:12;99794.16;;;9.95;100.00
66164;BME280;52962;51.088;3.096;2022-09-27T03:48:40;99801.13;;;9.90;100.00
66164;BME280;52962;51.088;3.096;2022-09-27T03:51:08;99792.31;;;9.78;100.00
66164;BME280;52962;51.088;3.096;2022-09-27T03:53:39;99815.00;;;9.67;100.00
66164;BME280;52962;51.088;3.096;2022-09-27T03:56:08;99825.47;;;9.61;100.00
66164;BME280;52962;51.088;3.096;2022-09-27T03:58:36;99814.88;;;9.52;100.00
66164;BME280;52962;51.088;3.096;2022-09-27T04:01:04;99813.09;;;9.48;100.00
66164;BME280;52962;51.088;3.096;2022-09-27T04:03:31;99804.22;;;9.31;100.00
66164;BME280;52962;51.088;3.096;2022-09-27T04:06:00;99789.38;;;9.39;100.00
66164;BME280;52962;51.088;3.096;2022-09-27T04:08:28;99794.56;;;9.30;100.00
66164;BME280;52962;51.088;3.096;2022-09-27T04:10:57;99807.75;;;9.33;100.00
66164;BME280;52962;51.088;3.096;2022-09-27T04:13:25;99791.97;;;9.31;100.00
66164;BME280;52962;51.088;3.096;2022-09-27T04:15:53;99777.97;;;9.34;100.00
66164;BME280;52962;51.088;3.096;2022-09-27T04:18:21;99782.34;;;9.38;100.00
66164;BME280;52962;51.088;3.096;2022-09-27T04:20:49;99777.97;;;9.37;100.00
66164;BME280;52962;51.088;3.096;2022-09-27T04:23:17;99772.75;;;9.41;100.00
66164;BME280;52962;51.088;3.096;2022-09-27T04:25:46;99771.88;;;9.41;100.00
66164;BME280;52962;51.088;3.096;2022-09-27T04:28:15;99768.38;;;9.43;100.00
66164;BME280;52962;51.088;3.096;2022-09-27T04:30:44;99771.91;;;9.47;100.00
66164;BME280;52962;51.088;3.096;2022-09-27T04:33:12;99772.81;;;9.49;100.00
66164;BME280;52962;51.088;3.096;2022-09-27T04:35:41;99757.91;;;9.48;100.00
66164;BME280;52962;51.088;3.096;2022-09-27T04:38:27;99764.94;;;9.52;100.00
66164;BME280;52962;51.088;3.096;2022-09-27T04:40:55;99757.09;;;9.55;100.00
66164;BME280;52962;51.088;3.096;2022-09-27T04:43:24;99763.22;;;9.56;100.00
66164;BME280;52962;51.088;3.096;2022-09-27T04:45:52;99752.72;;;9.59;100.00
66164;BME280;52962;51.088;3.096;2022-09-27T04:48:20;99758.00;;;9.62;100.00
66164;BME280;52962;51.088;3.096;2022-09-27T04:50:54;99758.88;;;9.61;100.00
66164;BME280;52962;51.088;3.096;2022-09-27T04:53:22;99764.16;;;9.65;100.00
66164;BME280;52962;51.088;3.096;2022-09-27T04:55:51;99769.44;;;9.68;100.00
66164;BME280;52962;51.088;3.096;2022-09-27T04:58:19;99771.16;;;9.63;100.00
66164;BME280;52962;51.088;3.096;2022-09-27T05:00:49;99774.69;;;9.65;100.00
66164;BME280;52962;51.088;3.096;2022-09-27T05:03:21;99780.78;;;9.60;100.00
66164;BME280;52962;51.088;3.096;2022-09-27T05:05:49;99781.69;;;9.66;100.00
66164;BME280;52962;51.088;3.096;2022-09-27T05:08:17;99791.31;;;9.64;100.00
66164;BME280;52962;51.088;3.096;2022-09-27T05:10:45;99787.78;;;9.58;100.00
66164;BME280;52962;51.088;3.096;2022-09-27T05:13:13;99786.97;;;9.66;100.00
66164;BME280;52962;51.088;3.096;2022-09-27T05:15:41;99786.94;;;9.63;100.00
66164;BME280;52962;51.088;3.096;2022-09-27T05:18:10;99784.28;;;9.60;100.00
66164;BME280;52962;51.088;3.096;2022-09-27T05:20:38;99777.31;;;9.64;100.00
66164;BME280;52962;51.088;3.096;2022-09-27T05:23:08;99772.84;;;9.52;100.00
66164;BME280;52962;51.088;3.096;2022-09-27T05:25:35;99773.69;;;9.48;100.00
66164;BME280;52962;51.088;3.096;2022-09-27T05:28:03;99777.19;;;9.50;100.00
66164;BME280;52962;51.088;3.096;2022-09-27T05:30:31;99776.28;;;9.45;100.00
66164;BME280;52962;51.088;3.096;2022-09-27T05:33:01;99774.47;;;9.39;100.00
66164;BME280;52962;51.088;3.096;2022-09-27T05:35:30;99783.28;;;9.43;100.00
66164;BME280;52962;51.088;3.096;2022-09-27T05:37:59;99790.28;;;9.42;100.00
66164;BME280;52962;51.088;3.096;2022-09-27T05:40:27;99785.00;;;9.41;100.00
66164;BME280;52962;51.088;3.096;2022-09-27T05:43:07;99797.28;;;9.43;100.00
66164;BME280;52962;51.088;3.096;2022-09-27T05:45:35;99791.16;;;9.44;100.00
66164;BME280;52962;51.088;3.096;2022-09-27T05:48:03;99789.44;;;9.46;100.00
66164;BME280;52962;51.088;3.096;2022-09-27T05:50:33;99795.56;;;9.47;100.00
66164;BME280;52962;51.088;3.096;2022-09-27T05:53:01;99810.38;;;9.33;100.00
66164;BME280;52962;51.088;3.096;2022-09-27T05:55:28;99814.72;;;9.31;100.00
66164;BME280;52962;51.088;3.096;2022-09-27T05:57:58;99819.16;;;9.39;100.00
66164;BME280;52962;51.088;3.096;2022-09-27T06:00:27;99807.81;;;9.45;100.00
66164;BME280;52962;51.088;3.096;2022-09-27T06:02:57;99806.97;;;9.49;100.00
66164;BME280;52962;51.088;3.096;2022-09-27T06:05:28;99806.06;;;9.47;100.00
66164;BME280;52962;51.088;3.096;2022-09-27T06:07:59;99802.59;;;9.48;100.00
66164;BME280;52962;51.088;3.096;2022-09-27T06:10:28;99802.59;;;9.48;100.00
66164;BME280;52962;51.088;3.096;2022-09-27T06:13:00;99797.34;;;9.51;100.00
66164;BME280;52962;51.088;3.096;2022-09-27T06:15:30;99792.97;;;9.51;100.00
66164;BME280;52962;51.088;3.096;2022-09-27T06:18:02;99785.09;;;9.50;100.00
66164;BME280;52962;51.088;3.096;2022-09-27T06:20:30;99781.56;;;9.48;100.00
66164;BME280;52962;51.088;3.096;2022-09-27T06:23:08;99785.09;;;9.53;100.00
66164;BME280;52962;51.088;3.096;2022-09-27T06:25:37;99793.91;;;9.58;100.00
66164;BME280;52962;51.088;3.096;2022-09-27T06:28:05;99793.94;;;9.64;100.00
66164;BME280;52962;51.088;3.096;2022-09-27T06:30:37;99788.69;;;9.66;100.00
66164;BME280;52962;51.088;3.096;2022-09-27T06:33:05;99793.94;;;9.64;100.00
66164;BME280;52962;51.088;3.096;2022-09-27T06:35:34;99795.69;;;9.64;100.00
66164;BME280;52962;51.088;3.096;2022-09-27T06:38:03;99799.22;;;9.64;100.00
66164;BME280;52962;51.088;3.096;2022-09-27T06:40:34;99799.22;;;9.67;100.00
66164;BME280;52962;51.088;3.096;2022-09-27T06:43:02;99806.25;;;9.68;100.00
66164;BME280;52962;51.088;3.096;2022-09-27T06:45:31;99808.03;;;9.72;100.00
66164;BME280;52962;51.088;3.096;2022-09-27T06:48:00;99805.41;;;9.74;100.00
66164;BME280;52962;51.088;3.096;2022-09-27T06:50:29;99804.53;;;9.75;100.00
66164;BME280;52962;51.088;3.096;2022-09-27T06:52:58;99795.78;;;9.74;100.00
66164;BME280;52962;51.088;3.096;2022-09-27T06:55:26;99799.25;;;9.70;100.00
66164;BME280;52962;51.088;3.096;2022-09-27T06:57:56;99800.19;;;9.77;100.00
66164;BME280;52962;51.088;3.096;2022-09-27T07:00:42;99798.44;;;9.77;100.00
66164;BME280;52962;51.088;3.096;2022-09-27T07:03:11;99795.81;;;9.80;100.00
66164;BME280;52962;51.088;3.096;2022-09-27T07:05:40;99801.13;;;9.87;100.00
66164;BME280;52962;51.088;3.096;2022-09-27T07:08:09;99802.91;;;9.92;100.00
66164;BME280;52962;51.088;3.096;2022-09-27T07:10:39;99807.34;;;9.99;100.00
66164;BME280;52962;51.088;3.096;2022-09-27T07:13:09;99802.06;;;9.98;100.00
66164;BME280;52962;51.088;3.096;2022-09-27T07:15:39;99820.50;;;9.99;100.00
66164;BME280;52962;51.088;3.096;2022-09-27T07:18:08;99818.75;;;10.03;100.00
66164;BME280;52962;51.088;3.096;2022-09-27T07:20:35;99823.13;;;10.01;100.00
66164;BME280;52962;51.088;3.096;2022-09-27T07:23:04;99829.28;;;10.06;100.00
66164;BME280;52962;51.088;3.096;2022-09-27T07:25:33;99823.09;;;9.98;100.00
66164;BME280;52962;51.088;3.096;2022-09-27T07:28:02;99821.38;;;10.03;100.00
66164;BME280;52962;51.088;3.096;2022-09-27T07:30:32;99831.06;;;10.10;100.00
66164;BME280;52962;51.088;3.096;2022-09-27T07:33:01;99835.50;;;10.19;100.00
66164;BME280;52962;51.088;3.096;2022-09-27T07:35:30;99838.19;;;10.20;100.00
66164;BME280;52962;51.088;3.096;2022-09-27T07:37:58;99840.75;;;10.14;100.00
66164;BME280;52962;51.088;3.096;2022-09-27T07:40:26;99844.25;;;10.14;100.00
66164;BME280;52962;51.088;3.096;2022-09-27T07:42:54;99850.41;;;10.15;100.00
66164;BME280;52962;51.088;3.096;2022-09-27T07:45:23;99845.94;;;10.05;100.00
66164;BME280;52962;51.088;3.096;2022-09-27T07:47:52;99844.25;;;10.11;100.00
66164;BME280;52962;51.088;3.096;2022-09-27T07:50:20;99846.81;;;10.01;100.00
66164;BME280;52962;51.088;3.096;2022-09-27T07:52:49;99852.06;;;10.01;100.00
66164;BME280;52962;51.088;3.096;2022-09-27T07:55:18;99849.41;;;9.99;100.00
66164;BME280;52962;51.088;3.096;2022-09-27T07:57:46;99849.41;;;9.98;100.00
66164;BME280;52962;51.088;3.096;2022-09-27T08:00:15;99855.56;;;10.00;100.00
66164;BME280;52962;51.088;3.096;2022-09-27T08:02:45;99844.16;;;9.99;100.00
66164;BME280;52962;51.088;3.096;2022-09-27T08:05:14;99849.53;;;10.16;100.00
66164;BME280;52962;51.088;3.096;2022-09-27T08:07:42;99856.63;;;10.25;100.00
66164;BME280;52962;51.088;3.096;2022-09-27T08:10:10;99857.56;;;10.31;100.00
66164;BME280;52962;51.088;3.096;2022-09-27T08:12:38;99855.78;;;10.30;100.00
66164;BME280;52962;51.088;3.096;2022-09-27T08:15:07;99866.34;;;10.33;100.00
66164;BME280;52962;51.088;3.096;2022-09-27T08:17:35;99860.19;;;10.31;100.00
66164;BME280;52962;51.088;3.096;2022-09-27T08:20:03;99861.97;;;10.37;100.00
66164;BME280;52962;51.088;3.096;2022-09-27T08:22:39;99858.44;;;10.33;100.00
66164;BME280;52962;51.088;3.096;2022-09-27T08:25:07;99859.31;;;10.35;100.00
66164;BME280;52962;51.088;3.096;2022-09-27T08:27:36;99868.13;;;10.46;100.00
66164;BME280;52962;51.088;3.096;2022-09-27T08:30:05;99868.13;;;10.46;100.00
66164;BME280;52962;51.088;3.096;2022-09-27T08:32:33;99861.13;;;10.52;100.00
66164;BME280;52962;51.088;3.096;2022-09-27T08:35:03;99868.19;;;10.56;100.00
66164;BME280;52962;51.088;3.096;2022-09-27T08:37:34;99868.22;;;10.65;100.00
66164;BME280;52962;51.088;3.096;2022-09-27T08:40:03;99859.47;;;10.67;100.00
66164;BME280;52962;51.088;3.096;2022-09-27T08:42:37;99854.22;;;10.72;100.00
66164;BME280;52962;51.088;3.096;2022-09-27T08:45:12;99854.25;;;10.81;100.00
66164;BME280;52962;51.088;3.096;2022-09-27T08:47:45;99848.09;;;10.82;100.00
66164;BME280;52962;51.088;3.096;2022-09-27T08:50:21;99848.16;;;11.02;100.00
66164;BME280;52962;51.088;3.096;2022-09-27T08:52:55;99842.06;;;11.23;100.00
66164;BME280;52962;51.088;3.096;2022-09-27T08:55:29;99840.31;;;11.31;100.00
66164;BME280;52962;51.088;3.096;2022-09-27T08:57:58;99841.19;;;11.31;100.00
66164;BME280;52962;51.088;3.096;2022-09-27T09:00:27;99834.16;;;11.20;100.00
66164;BME280;52962;51.088;3.096;2022-09-27T09:02:55;99859.53;;;10.87;100.00
66164;BME280;52962;51.088;3.096;2022-09-27T09:05:28;99871.69;;;10.58;100.00
66164;BME280;52962;51.088;3.096;2022-09-27T09:08:14;99869.84;;;10.35;100.00
66164;BME280;52962;51.088;3.096;2022-09-27T09:10:50;99872.41;;;10.25;100.00
66164;BME280;52962;51.088;3.096;2022-09-27T09:13:51;99878.38;;;10.04;100.00
66164;BME280;52962;51.088;3.096;2022-09-27T09:16:32;99867.88;;;10.04;100.00
66164;BME280;52962;51.088;3.096;2022-09-27T09:19:19;99870.59;;;10.18;100.00
66164;BME280;52962;51.088;3.096;2022-09-27T09:21:58;99861.09;;;10.39;100.00
66164;BME280;52962;51.088;3.096;2022-09-27T09:24:42;99865.56;;;10.57;100.00
66164;BME280;52962;51.088;3.096;2022-09-27T09:27:20;99862.09;;;10.67;100.00
66164;BME280;52962;51.088;3.096;2022-09-27T09:30:01;99866.47;;;10.67;100.00
66164;BME280;52962;51.088;3.096;2022-09-27T09:32:39;99861.22;;;10.68;100.00
66164;BME280;52962;51.088;3.096;2022-09-27T09:35:13;99856.88;;;10.78;100.00
66164;BME280;52962;51.088;3.096;2022-09-27T09:37:45;99852.50;;;10.80;100.00
66164;BME280;52962;51.088;3.096;2022-09-27T09:40:21;99855.13;;;10.80;100.00
66164;BME280;52962;51.088;3.096;2022-09-27T09:42:53;99854.28;;;10.87;100.00
66164;BME280;52962;51.088;3.096;2022-09-27T09:45:27;99856.03;;;10.88;100.00
66164;BME280;52962;51.088;3.096;2022-09-27T09:47:59;99856.06;;;10.96;100.00
66164;BME280;52962;51.088;3.096;2022-09-27T09:50:31;99856.94;;;10.98;100.00
66164;BME280;52962;51.088;3.096;2022-09-27T09:53:08;99848.13;;;10.85;100.00
66164;BME280;52962;51.088;3.096;2022-09-27T09:55:40;99849.03;;;10.96;100.00
66164;BME280;52962;51.088;3.096;2022-09-27T09:58:19;99847.31;;;11.07;100.00
66164;BME280;52962;51.088;3.096;2022-09-27T10:00:50;99840.31;;;11.20;100.00
66164;BME280;52962;51.088;3.096;2022-09-27T10:03:19;99835.91;;;11.18;100.00
66164;BME280;52962;51.088;3.096;2022-09-27T10:05:47;99832.41;;;11.44;100.00
66164;BME280;52962;51.088;3.096;2022-09-27T10:08:17;99847.34;;;11.55;100.00
66164;BME280;52962;51.088;3.096;2022-09-27T10:10:47;99820.09;;;11.75;100.00
66164;BME280;52962;51.088;3.096;2022-09-27T10:13:17;99828.00;;;11.75;100.00
66164;BME280;52962;51.088;3.096;2022-09-27T10:15:50;99819.25;;;11.89;100.00
66164;BME280;52962;51.088;3.096;2022-09-27T10:18:20;99814.81;;;12.04;100.00
66164;BME280;52962;51.088;3.096;2022-09-27T10:20:49;99820.97;;;12.11;100.00
66164;BME280;52962;51.088;3.096;2022-09-27T10:23:21;99805.13;;;12.11;100.00
66164;BME280;52962;51.088;3.096;2022-09-27T10:25:53;99810.34;;;12.35;100.00
66164;BME280;52962;51.088;3.096;2022-09-27T10:28:34;99804.97;;;12.54;100.00
66164;BME280;52962;51.088;3.096;2022-09-27T10:31:05;99799.66;;;12.58;100.00
66164;BME280;52962;51.088;3.096;2022-09-27T10:33:36;99795.22;;;12.66;100.00
66164;BME280;52962;51.088;3.096;2022-09-27T10:36:22;99798.78;;;12.58;100.00
66164;BME280;52962;51.088;3.096;2022-09-27T10:38:52;99787.31;;;12.65;100.00
66164;BME280;52962;51.088;3.096;2022-09-27T10:41:24;99783.72;;;12.75;100.00
66164;BME280;52962;51.088;3.096;2022-09-27T10:43:53;99774.88;;;12.85;100.00
66164;BME280;52962;51.088;3.096;2022-09-27T10:46:25;99774.84;;;12.91;100.00
66164;BME280;52962;51.088;3.096;2022-09-27T10:51:42;99766.06;;;12.83;100.00
66164;BME280;52962;51.088;3.096;2022-09-27T10:54:22;99763.22;;;13.15;100.00
66164;BME280;52962;51.088;3.096;2022-09-27T10:56:56;99779.09;;;13.17;100.00
66164;BME280;52962;51.088;3.096;2022-09-27T10:59:26;99792.38;;;13.06;100.00
66164;BME280;52962;51.088;3.096;2022-09-27T11:01:57;99801.25;;;12.94;100.00
66164;BME280;52962;51.088;3.096;2022-09-27T11:04:28;99798.72;;;12.70;100.00
66164;BME280;52962;51.088;3.096;2022-09-27T11:07:14;99803.16;;;12.66;100.00
66164;BME280;52962;51.088;3.096;2022-09-27T11:09:45;99798.81;;;12.49;100.00
66164;BME280;52962;51.088;3.096;2022-09-27T11:12:16;99790.06;;;12.45;100.00
66164;BME280;52962;51.088;3.096;2022-09-27T11:14:52;99788.31;;;12.41;100.00
66164;BME280;52962;51.088;3.096;2022-09-27T11:17:26;99783.91;;;12.44;100.00
66164;BME280;52962;51.088;3.096;2022-09-27T11:20:16;99786.47;;;12.52;100.00
66164;BME280;52962;51.088;3.096;2022-09-27T11:26:14;99784.41;;;13.09;100.00
66164;BME280;52962;51.088;3.096;2022-09-27T11:28:55;99781.75;;;13.14;100.00
66164;BME280;52962;51.088;3.096;2022-09-27T11:31:34;99775.53;;;13.22;100.00
66164;BME280;52962;51.088;3.096;2022-09-27T11:34:13;99765.03;;;13.07;100.00
66164;BME280;52962;51.088;3.096;2022-09-27T11:36:54;99774.72;;;13.11;100.00
66164;BME280;52962;51.088;3.096;2022-09-27T11:39:31;99782.56;;;13.26;100.00
66164;BME280;52962;51.088;3.096;2022-09-27T11:42:13;99774.56;;;13.34;100.00
66164;BME280;52962;51.088;3.096;2022-09-27T11:44:59;99781.53;;;13.47;100.00
66164;BME280;52962;51.088;3.096;2022-09-27T11:48:04;99769.19;;;13.46;100.00
66164;BME280;52962;51.088;3.096;2022-09-27T11:50:59;99771.63;;;13.67;100.00
66164;BME280;52962;51.088;3.096;2022-09-27T11:53:44;99755.94;;;13.51;100.00
66164;BME280;52962;51.088;3.096;2022-09-27T11:56:23;99766.63;;;13.35;100.00
66164;BME280;52962;51.088;3.096;2022-09-27T11:59:07;99770.34;;;13.04;100.00
66164;BME280;52962;51.088;3.096;2022-09-27T12:01:39;99764.28;;;12.87;100.00
66164;BME280;52962;51.088;3.096;2022-09-27T12:04:50;99766.97;;;12.79;100.00
66164;BME280;52962;51.088;3.096;2022-09-27T12:07:29;99766.13;;;12.74;100.00
66164;BME280;52962;51.088;3.096;2022-09-27T12:10:03;99764.34;;;12.76;100.00
66164;BME280;52962;51.088;3.096;2022-09-27T12:12:38;99750.91;;;13.11;100.00
66164;BME280;52962;51.088;3.096;2022-09-27T12:15:14;99741.97;;;13.32;100.00
66164;BME280;52962;51.088;3.096;2022-09-27T12:17:47;99737.34;;;13.55;100.00
66164;BME280;52962;51.088;3.096;2022-09-27T12:20:20;99729.41;;;13.55;100.00
66164;BME280;52962;51.088;3.096;2022-09-27T12:22:54;99716.19;;;13.55;100.00
66164;BME280;52962;51.088;3.096;2022-09-27T12:25:28;99718.81;;;13.57;100.00
66164;BME280;52962;51.088;3.096;2022-09-27T12:28:00;99714.28;;;13.69;100.00
66164;BME280;52962;51.088;3.096;2022-09-27T12:30:31;99716.84;;;13.75;100.00
66164;BME280;52962;51.088;3.096;2022-09-27T12:33:22;99709.72;;;13.82;100.00
66164;BME280;52962;51.088;3.096;2022-09-27T12:35:53;99706.25;;;13.79;100.00
66164;BME280;52962;51.088;3.096;2022-09-27T12:38:36;99707.13;;;13.78;100.00
66164;BME280;52962;51.088;3.096;2022-09-27T12:41:10;99723.13;;;13.67;100.00
66164;BME280;52962;51.088;3.096;2022-09-27T12:43:43;99719.63;;;13.62;100.00
66164;BME280;52962;51.088;3.096;2022-09-27T12:46:20;99709.09;;;13.57;100.00
66164;BME280;52962;51.088;3.096;2022-09-27T12:49:00;99715.41;;;13.49;100.00
66164;BME280;52962;51.088;3.096;2022-09-27T12:51:34;99699.59;;;13.39;100.00
66164;BME280;52962;51.088;3.096;2022-09-27T12:54:19;99710.25;;;13.32;100.00
66164;BME280;52962;51.088;3.096;2022-09-27T12:56:56;99716.41;;;13.35;100.00
66164;BME280;52962;51.088;3.096;2022-09-27T12:59:54;99705.06;;;13.21;100.00
66164;BME280;52962;51.088;3.096;2022-09-27T13:06:04;99702.53;;;13.01;100.00
66164;BME280;52962;51.088;3.096;2022-09-27T13:08:55;99711.34;;;13.00;100.00
66164;BME280;52962;51.088;3.096;2022-09-27T13:11:38;99709.59;;;12.99;100.00
66164;BME280;52962;51.088;3.096;2022-09-27T13:14:16;99718.38;;;13.04;100.00
66164;BME280;52962;51.088;3.096;2022-09-27T13:16:45;99711.34;;;13.02;100.00
66164;BME280;52962;51.088;3.096;2022-09-27T13:19:37;99705.25;;;12.92;100.00
66164;BME280;52962;51.088;3.096;2022-09-27T13:22:08;99699.94;;;12.97;100.00
66164;BME280;52962;51.088;3.096;2022-09-27T13:24:45;99710.59;;;12.83;100.00
66164;BME280;52962;51.088;3.096;2022-09-27T13:27:38;99718.66;;;12.62;100.00
66164;BME280;52962;51.088;3.096;2022-09-27T13:33:39;99731.19;;;12.25;100.00
66164;BME280;52962;51.088;3.096;2022-09-27T13:36:25;99719.91;;;11.82;100.00
66164;BME280;52962;51.088;3.096;2022-09-27T13:39:02;99723.44;;;11.47;100.00